createdAt,value
2018-12-08T00:06:42.799Z,2.30
2018-12-08T00:15:04.019Z,2.70
2018-12-08T00:23:25.176Z,2.37
2018-12-08T00:31:46.645Z,2.47
2018-12-08T00:40:07.814Z,2.50
2018-12-08T00:48:28.955Z,2.90
2018-12-08T00:56:50.104Z,2.63
2018-12-08T01:05:11.380Z,2.17
2018-12-08T01:13:32.536Z,2.13
2018-12-08T01:21:53.692Z,2.20
2018-12-08T01:30:14.847Z,2.20
2018-12-08T01:38:36.015Z,2.20
2018-12-08T01:46:57.171Z,2.07
2018-12-08T01:55:18.331Z,2.43
2018-12-08T02:03:39.487Z,2.10
2018-12-08T02:12:00.636Z,2.00
2018-12-08T02:20:21.787Z,2.50
2018-12-08T02:28:42.940Z,2.30
2018-12-08T02:37:04.104Z,2.50
2018-12-08T02:45:25.262Z,1.90
2018-12-08T02:53:46.416Z,1.63
2018-12-08T03:02:07.583Z,1.47
2018-12-08T03:10:28.748Z,1.40
2018-12-08T03:18:49.923Z,1.50
2018-12-08T03:27:11.089Z,1.53
2018-12-08T03:35:32.248Z,1.40
2018-12-08T03:43:53.512Z,1.40
2018-12-08T03:52:14.685Z,1.60
2018-12-08T04:00:35.939Z,1.57
2018-12-08T04:08:57.091Z,2.03
2018-12-08T04:17:18.256Z,1.50
2018-12-08T04:25:39.403Z,2.20
2018-12-08T04:34:00.540Z,1.77
2018-12-08T04:42:21.691Z,2.43
2018-12-08T04:50:42.855Z,1.90
2018-12-08T04:59:04.011Z,1.80
2018-12-08T05:07:25.155Z,1.50
2018-12-08T05:15:46.300Z,1.70
2018-12-08T05:24:07.439Z,1.70
2018-12-08T05:32:28.604Z,2.10
2018-12-08T05:40:49.756Z,1.80
2018-12-08T05:49:10.907Z,1.40
2018-12-08T05:57:32.052Z,2.00
2018-12-08T06:05:53.196Z,1.40
2018-12-08T06:14:14.345Z,1.50
2018-12-08T06:22:35.506Z,1.40
2018-12-08T06:30:56.659Z,1.50
2018-12-08T06:39:17.800Z,1.80
2018-12-08T06:47:38.945Z,1.60
2018-12-08T06:56:00.091Z,1.63
2018-12-08T07:04:21.240Z,1.60
2018-12-08T07:12:42.387Z,1.80
2018-12-08T07:21:03.546Z,1.80
2018-12-08T07:29:24.696Z,1.77
2018-12-08T07:37:45.835Z,1.90
2018-12-08T07:46:06.980Z,1.87
2018-12-08T07:54:28.128Z,1.53
2018-12-08T08:02:49.276Z,1.83
2018-12-08T08:11:10.419Z,2.20
2018-12-08T08:19:31.566Z,1.73
2018-12-08T08:27:52.704Z,2.07
2018-12-08T08:36:13.866Z,2.00
2018-12-08T08:44:35.019Z,2.30
2018-12-08T08:52:56.156Z,2.57
2018-12-08T09:01:17.291Z,1.97
2018-12-08T09:09:38.623Z,1.70
2018-12-08T09:17:59.779Z,1.80
2018-12-08T09:26:20.956Z,1.97
2018-12-08T09:34:42.107Z,2.07
2018-12-08T09:43:03.252Z,2.07
2018-12-08T09:51:24.396Z,1.80
2018-12-08T09:59:45.585Z,2.20
2018-12-08T10:08:06.826Z,1.70
2018-12-08T10:16:27.976Z,1.77
2018-12-08T10:24:49.124Z,1.80
2018-12-08T10:33:10.176Z,2.00
2018-12-08T10:41:31.336Z,1.83
2018-12-08T10:49:52.496Z,2.00
2018-12-08T10:58:13.556Z,2.07
2018-12-08T11:06:34.703Z,2.20
2018-12-08T11:15:00.587Z,2.47
2018-12-08T11:23:19.070Z,2.60
2018-12-08T11:31:40.263Z,2.50
2018-12-08T11:40:01.404Z,2.37
2018-12-08T11:48:22.580Z,1.83
2018-12-08T11:56:43.805Z,2.70
2018-12-08T12:05:05.995Z,2.27
2018-12-08T12:13:27.245Z,2.63
2018-12-08T12:21:48.392Z,2.23
2018-12-08T12:30:09.581Z,2.13
2018-12-08T12:38:30.799Z,2.40
2018-12-08T12:46:52.890Z,2.10
2018-12-08T12:55:14.119Z,2.60
2018-12-08T13:03:35.264Z,2.43
2018-12-08T13:11:56.646Z,2.30
2018-12-08T13:20:17.879Z,2.00
2018-12-08T13:28:39.118Z,1.87
2018-12-08T13:37:00.271Z,2.30
2018-12-08T13:45:21.411Z,1.90
2018-12-08T13:53:42.559Z,2.23
2018-12-08T14:02:03.917Z,2.10
2018-12-08T14:10:25.151Z,2.30
2018-12-08T14:18:46.416Z,2.20
2018-12-08T14:27:07.563Z,1.90
2018-12-08T14:35:28.695Z,2.63
2018-12-08T14:43:49.852Z,2.60
2018-12-08T14:52:10.987Z,3.43
2018-12-08T15:00:32.128Z,2.37
2018-12-08T15:08:53.277Z,2.43
2018-12-08T15:17:14.411Z,2.40
2018-12-08T15:25:35.592Z,2.10
2018-12-08T15:33:56.745Z,2.33
2018-12-08T15:42:17.890Z,2.73
2018-12-08T15:50:39.031Z,2.10
2018-12-08T15:59:00.172Z,2.30
2018-12-08T16:07:21.398Z,2.47
2018-12-08T16:15:42.447Z,3.60
2018-12-08T16:24:03.603Z,2.23
2018-12-08T16:32:24.971Z,2.30
2018-12-08T16:40:47.224Z,2.93
2018-12-08T16:49:08.369Z,2.43
2018-12-08T16:57:29.527Z,2.50
2018-12-08T17:05:50.689Z,2.30
2018-12-08T17:14:11.957Z,2.73
2018-12-08T17:22:33.198Z,2.70
2018-12-08T17:30:54.443Z,2.80
2018-12-08T17:39:15.599Z,2.50
2018-12-08T17:47:36.750Z,2.17
2018-12-08T17:55:57.896Z,2.90
2018-12-08T18:04:19.135Z,2.90
2018-12-08T18:12:40.284Z,2.30
2018-12-08T18:21:01.632Z,2.93
2018-12-08T18:29:23.094Z,3.50
2018-12-08T18:37:44.239Z,2.50
2018-12-08T18:46:05.383Z,3.60
2018-12-08T18:54:26.552Z,3.70
2018-12-08T19:02:47.695Z,2.97
2018-12-08T19:11:08.948Z,3.27
2018-12-08T19:19:30.208Z,2.80
2018-12-08T19:27:51.475Z,2.53
2018-12-08T19:36:12.711Z,2.90
2018-12-08T19:44:33.963Z,2.70
2018-12-08T19:52:55.211Z,2.90
2018-12-08T20:01:16.459Z,3.10
2018-12-08T20:09:37.652Z,2.70
2018-12-08T20:17:58.872Z,2.40
2018-12-08T20:26:20.039Z,2.10
2018-12-08T20:34:41.264Z,1.67
2018-12-08T20:43:02.424Z,1.70
2018-12-08T20:51:23.727Z,1.80
2018-12-08T20:59:45.020Z,1.40
2018-12-08T21:08:06.172Z,1.47
2018-12-08T21:16:27.346Z,1.20
2018-12-08T21:24:48.495Z,1.50
2018-12-08T21:33:09.679Z,2.80
2018-12-08T21:41:30.819Z,1.40
2018-12-08T21:49:51.947Z,1.40
2018-12-08T21:58:13.097Z,1.50
2018-12-08T22:06:34.246Z,1.20
2018-12-08T22:14:57.751Z,1.10
2018-12-08T22:23:18.903Z,1.50
2018-12-08T22:31:40.053Z,1.83
2018-12-08T22:40:01.309Z,1.60
2018-12-08T22:48:22.456Z,1.00
2018-12-08T22:56:43.683Z,1.50
2018-12-08T23:05:04.957Z,1.03
2018-12-08T23:13:26.192Z,1.40
2018-12-08T23:21:47.344Z,1.20
2018-12-08T23:30:08.499Z,1.13
2018-12-08T23:38:30.579Z,2.50
2018-12-08T23:46:51.728Z,1.30
2018-12-08T23:55:12.879Z,1.00
